FDX212 EPKK-LDPL
Flight info
| Callsign | FDX212 |
|---|---|
| Flight time | 1h 12m |
| Altitude | 36000 |
| Route | EPKK BABKO L856 SOMID DCT XENAK M985 LEDRI DCT ARSIN DCT SUNIS DCT RATGO M859 VALLU DCT EBITI DCT EKSUM DCT GIRDA LDPL |
| Aircraft | B738/M-VGDW/C |
Departure
| Time | 2026-05-04 16:50 |
|---|---|
| Airport | Kraków John Paul II International Airport (EPKK) |
Arrival
| Time | 2026-05-04 18:02 |
|---|---|
| Airport | Pula Airport (LDPL) |
| Time | Latitude | Longitude | Altitude | Speed | Heading |
|---|---|---|---|---|---|
| 2026-05-04 16:20 | 50.07356 | 19.80349 | 788 ft | 0 kts | 167° |
| 2026-05-04 16:40 | 50.07362 | 19.80347 | 788 ft | 2 kts | 167° |
| 2026-05-04 16:41 | 50.07394 | 19.80336 | 788 ft | 2 kts | 167° |
| 2026-05-04 16:41 | 50.07435 | 19.80307 | 788 ft | 1 kts | 84° |
| 2026-05-04 16:42 | 50.07434 | 19.80296 | 788 ft | 0 kts | 72° |
| 2026-05-04 16:45 | 50.07509 | 19.80396 | 788 ft | 17 kts | 17° |
| 2026-05-04 16:46 | 50.07836 | 19.80339 | 788 ft | 5 kts | 347° |
| 2026-05-04 16:46 | 50.07843 | 19.80337 | 788 ft | 0 kts | 347° |
| 2026-05-04 16:48 | 50.07883 | 19.80322 | 788 ft | 11 kts | 347° |
| 2026-05-04 16:48 | 50.07978 | 19.80288 | 787 ft | 11 kts | 347° |
| 2026-05-04 16:49 | 50.08012 | 19.80195 | 787 ft | 0 kts | 258° |
| 2026-05-04 16:50 | 50.07957 | 19.79802 | 787 ft | 78 kts | 258° |
| 2026-05-04 16:50 | 50.07550 | 19.76833 | 1535 ft | 167 kts | 257° |
| 2026-05-04 16:51 | 50.07061 | 19.73356 | 3586 ft | 164 kts | 257° |
| 2026-05-04 16:51 | 50.06805 | 19.71534 | 4185 ft | 193 kts | 256° |
| 2026-05-04 16:51 | 50.06195 | 19.67186 | 5310 ft | 221 kts | 251° |
| 2026-05-04 16:52 | 50.03673 | 19.64023 | 6325 ft | 265 kts | 185° |
| 2026-05-04 16:52 | 50.01842 | 19.64496 | 7291 ft | 269 kts | 160° |
| 2026-05-04 16:53 | 49.98289 | 19.66156 | 9242 ft | 278 kts | 166° |
| 2026-05-04 16:53 | 49.92229 | 19.68343 | 10676 ft | 331 kts | 168° |
| 2026-05-04 16:54 | 49.89965 | 19.69103 | 10665 ft | 332 kts | 169° |
| 2026-05-04 16:55 | 49.81521 | 19.64506 | 10694 ft | 332 kts | 209° |
| 2026-05-04 16:55 | 49.77486 | 19.60963 | 10765 ft | 338 kts | 209° |
| 2026-05-04 16:56 | 49.73356 | 19.57387 | 12545 ft | 342 kts | 209° |
| 2026-05-04 16:56 | 49.66976 | 19.51911 | 14957 ft | 357 kts | 209° |
| 2026-05-04 16:57 | 49.64798 | 19.50048 | 15732 ft | 361 kts | 209° |
| 2026-05-04 16:57 | 49.60386 | 19.46061 | 17192 ft | 372 kts | 218° |
| 2026-05-04 16:58 | 49.54578 | 19.37956 | 19332 ft | 383 kts | 224° |
| 2026-05-04 16:58 | 49.52626 | 19.35141 | 20010 ft | 386 kts | 224° |
| 2026-05-04 16:59 | 49.48647 | 19.29474 | 21302 ft | 394 kts | 224° |
| 2026-05-04 17:00 | 49.41079 | 19.18884 | 23529 ft | 410 kts | 223° |
| 2026-05-04 17:00 | 49.34663 | 19.09984 | 25021 ft | 419 kts | 223° |
| 2026-05-04 17:01 | 49.30292 | 19.03940 | 25983 ft | 426 kts | 223° |
| 2026-05-04 17:01 | 49.25859 | 18.97825 | 26902 ft | 432 kts | 223° |
| 2026-05-04 17:02 | 49.21351 | 18.91623 | 27743 ft | 439 kts | 223° |
| 2026-05-04 17:02 | 49.16764 | 18.85329 | 28594 ft | 445 kts | 223° |
| 2026-05-04 17:03 | 49.14449 | 18.82158 | 29029 ft | 448 kts | 223° |
| 2026-05-04 17:03 | 49.12152 | 18.79016 | 29438 ft | 451 kts | 223° |
| 2026-05-04 17:03 | 49.07465 | 18.72618 | 30164 ft | 457 kts | 223° |
| 2026-05-04 17:04 | 49.02710 | 18.66145 | 30976 ft | 456 kts | 223° |
| 2026-05-04 17:04 | 48.97994 | 18.59743 | 31883 ft | 454 kts | 223° |
| 2026-05-04 17:05 | 48.93262 | 18.53334 | 32639 ft | 455 kts | 223° |
| 2026-05-04 17:05 | 48.88540 | 18.46956 | 33486 ft | 453 kts | 223° |
| 2026-05-04 17:06 | 48.83821 | 18.40599 | 34257 ft | 452 kts | 223° |
| 2026-05-04 17:06 | 48.81468 | 18.37436 | 34636 ft | 451 kts | 223° |
| 2026-05-04 17:07 | 48.76775 | 18.31140 | 35331 ft | 449 kts | 224° |
| 2026-05-04 17:07 | 48.75227 | 18.29066 | 35558 ft | 449 kts | 224° |
| 2026-05-04 17:07 | 48.72128 | 18.24920 | 36002 ft | 448 kts | 224° |
| 2026-05-04 17:07 | 48.69749 | 18.21740 | 35995 ft | 453 kts | 224° |
| 2026-05-04 17:08 | 48.62677 | 18.12318 | 35987 ft | 446 kts | 224° |
| 2026-05-04 17:09 | 48.58049 | 18.06174 | 36003 ft | 445 kts | 224° |
| 2026-05-04 17:09 | 48.53385 | 17.99995 | 36002 ft | 446 kts | 224° |
| 2026-05-04 17:10 | 48.41672 | 17.84546 | 36000 ft | 448 kts | 223° |
| 2026-05-04 17:11 | 48.36970 | 17.78373 | 35996 ft | 448 kts | 223° |
| 2026-05-04 17:12 | 48.29329 | 17.70194 | 35992 ft | 450 kts | 215° |
| 2026-05-04 17:13 | 48.16234 | 17.57472 | 35983 ft | 449 kts | 216° |
| 2026-05-04 17:14 | 48.05809 | 17.47208 | 35974 ft | 448 kts | 216° |
| 2026-05-04 17:15 | 47.98006 | 17.39552 | 35972 ft | 447 kts | 216° |
| 2026-05-04 17:16 | 47.87599 | 17.29388 | 35969 ft | 447 kts | 216° |
| 2026-05-04 17:17 | 47.77230 | 17.19311 | 35972 ft | 446 kts | 215° |
| 2026-05-04 17:18 | 47.66820 | 17.09242 | 35973 ft | 446 kts | 215° |
| 2026-05-04 17:19 | 47.56432 | 16.99244 | 35975 ft | 446 kts | 215° |
| 2026-05-04 17:20 | 47.46017 | 16.89267 | 35973 ft | 446 kts | 215° |
| 2026-05-04 17:20 | 47.38187 | 16.81798 | 35967 ft | 446 kts | 215° |
| 2026-05-04 17:21 | 47.27765 | 16.71898 | 35972 ft | 445 kts | 215° |
| 2026-05-04 17:22 | 47.22559 | 16.66970 | 35975 ft | 445 kts | 215° |
| 2026-05-04 17:23 | 47.12149 | 16.57151 | 35980 ft | 444 kts | 215° |
| 2026-05-04 17:24 | 47.04355 | 16.49830 | 35979 ft | 443 kts | 215° |
| 2026-05-04 17:25 | 46.93999 | 16.40142 | 35974 ft | 442 kts | 215° |
| 2026-05-04 17:25 | 46.89057 | 16.34864 | 35964 ft | 437 kts | 228° |
| 2026-05-04 17:26 | 46.85079 | 16.28139 | 35486 ft | 436 kts | 233° |
| 2026-05-04 17:26 | 46.79243 | 16.17942 | 34740 ft | 436 kts | 232° |
| 2026-05-04 17:27 | 46.75312 | 16.11191 | 34169 ft | 438 kts | 232° |
| 2026-05-04 17:27 | 46.71363 | 16.04465 | 33088 ft | 432 kts | 232° |
| 2026-05-04 17:28 | 46.67482 | 15.97880 | 32043 ft | 427 kts | 231° |
| 2026-05-04 17:29 | 46.61720 | 15.88126 | 30547 ft | 421 kts | 231° |
| 2026-05-04 17:29 | 46.56033 | 15.78531 | 28950 ft | 413 kts | 231° |
| 2026-05-04 17:30 | 46.50526 | 15.69276 | 27995 ft | 390 kts | 231° |
| 2026-05-04 17:31 | 46.47005 | 15.63373 | 28007 ft | 389 kts | 231° |
| 2026-05-04 17:31 | 46.41668 | 15.54445 | 27995 ft | 389 kts | 231° |
| 2026-05-04 17:32 | 46.38141 | 15.48561 | 27996 ft | 387 kts | 231° |
| 2026-05-04 17:33 | 46.32843 | 15.39747 | 27999 ft | 386 kts | 231° |
| 2026-05-04 17:33 | 46.31105 | 15.36860 | 27998 ft | 386 kts | 231° |
| 2026-05-04 17:34 | 46.23798 | 15.25398 | 28015 ft | 388 kts | 228° |
| 2026-05-04 17:35 | 46.14489 | 15.11375 | 28010 ft | 388 kts | 229° |
| 2026-05-04 17:36 | 46.10760 | 15.05740 | 27811 ft | 390 kts | 228° |
| 2026-05-04 17:36 | 46.08895 | 15.02927 | 27443 ft | 387 kts | 228° |
| 2026-05-04 17:36 | 46.07040 | 15.00135 | 27000 ft | 384 kts | 228° |
| 2026-05-04 17:36 | 46.05167 | 14.97420 | 26572 ft | 381 kts | 225° |
| 2026-05-04 17:37 | 46.03205 | 14.94882 | 26179 ft | 379 kts | 223° |
| 2026-05-04 17:37 | 46.01210 | 14.92419 | 25762 ft | 376 kts | 222° |
| 2026-05-04 17:37 | 45.99219 | 14.89987 | 25352 ft | 374 kts | 222° |
| 2026-05-04 17:37 | 45.97246 | 14.87570 | 24946 ft | 371 kts | 222° |
| 2026-05-04 17:38 | 45.95291 | 14.85161 | 24538 ft | 368 kts | 222° |
| 2026-05-04 17:38 | 45.93371 | 14.82784 | 24142 ft | 365 kts | 222° |
| 2026-05-04 17:38 | 45.91467 | 14.80423 | 23736 ft | 364 kts | 222° |
| 2026-05-04 17:38 | 45.89558 | 14.78050 | 23256 ft | 362 kts | 222° |
| 2026-05-04 17:39 | 45.85838 | 14.73432 | 22414 ft | 356 kts | 222° |
| 2026-05-04 17:39 | 45.83934 | 14.71070 | 22002 ft | 352 kts | 222° |
| 2026-05-04 17:39 | 45.82090 | 14.68784 | 21602 ft | 349 kts | 221° |
| 2026-05-04 17:40 | 45.80263 | 14.66521 | 21218 ft | 345 kts | 221° |
| 2026-05-04 17:40 | 45.78451 | 14.64279 | 20821 ft | 343 kts | 221° |
| 2026-05-04 17:40 | 45.76653 | 14.62056 | 20440 ft | 340 kts | 221° |
| 2026-05-04 17:40 | 45.74872 | 14.59857 | 20050 ft | 337 kts | 221° |
| 2026-05-04 17:41 | 45.73101 | 14.57671 | 19676 ft | 335 kts | 221° |
| 2026-05-04 17:41 | 45.71461 | 14.55329 | 19296 ft | 332 kts | 229° |
| 2026-05-04 17:41 | 45.69994 | 14.52791 | 18931 ft | 330 kts | 231° |
| 2026-05-04 17:41 | 45.68563 | 14.50235 | 18560 ft | 328 kts | 231° |
| 2026-05-04 17:42 | 45.67142 | 14.47689 | 18151 ft | 327 kts | 231° |
| 2026-05-04 17:42 | 45.65722 | 14.45159 | 17729 ft | 324 kts | 231° |
| 2026-05-04 17:42 | 45.64312 | 14.42661 | 17333 ft | 322 kts | 230° |
| 2026-05-04 17:42 | 45.62924 | 14.40214 | 16967 ft | 319 kts | 230° |
| 2026-05-04 17:43 | 45.61982 | 14.38558 | 16710 ft | 317 kts | 230° |
| 2026-05-04 17:43 | 45.60596 | 14.36128 | 16346 ft | 314 kts | 230° |
| 2026-05-04 17:43 | 45.58773 | 14.32938 | 15848 ft | 311 kts | 230° |
| 2026-05-04 17:43 | 45.57405 | 14.30546 | 15484 ft | 309 kts | 230° |
| 2026-05-04 17:44 | 45.56487 | 14.28944 | 15245 ft | 308 kts | 230° |
| 2026-05-04 17:44 | 45.55133 | 14.26581 | 14870 ft | 307 kts | 229° |
| 2026-05-04 17:44 | 45.53784 | 14.24228 | 14514 ft | 305 kts | 229° |
| 2026-05-04 17:44 | 45.52442 | 14.21889 | 14161 ft | 304 kts | 229° |
| 2026-05-04 17:45 | 45.51122 | 14.19591 | 13797 ft | 302 kts | 229° |
| 2026-05-04 17:45 | 45.49793 | 14.17280 | 13408 ft | 301 kts | 229° |
| 2026-05-04 17:45 | 45.48470 | 14.14983 | 13025 ft | 299 kts | 229° |
| 2026-05-04 17:45 | 45.47132 | 14.12736 | 12665 ft | 296 kts | 226° |
| 2026-05-04 17:46 | 45.45673 | 14.10687 | 12319 ft | 293 kts | 223° |
| 2026-05-04 17:46 | 45.44180 | 14.08725 | 11988 ft | 291 kts | 222° |
| 2026-05-04 17:46 | 45.42688 | 14.06783 | 11635 ft | 290 kts | 222° |
| 2026-05-04 17:46 | 45.41207 | 14.04844 | 11283 ft | 289 kts | 223° |
| 2026-05-04 17:47 | 45.39736 | 14.02907 | 10943 ft | 287 kts | 223° |
| 2026-05-04 17:47 | 45.38273 | 14.00971 | 10581 ft | 286 kts | 223° |
| 2026-05-04 17:47 | 45.36822 | 13.99047 | 10305 ft | 282 kts | 223° |
| 2026-05-04 17:47 | 45.35404 | 13.97162 | 10136 ft | 276 kts | 223° |
| 2026-05-04 17:48 | 45.34024 | 13.95326 | 9968 ft | 269 kts | 223° |
| 2026-05-04 17:48 | 45.32661 | 13.93514 | 9643 ft | 268 kts | 223° |
| 2026-05-04 17:48 | 45.31300 | 13.91704 | 9339 ft | 266 kts | 223° |
| 2026-05-04 17:48 | 45.29958 | 13.89908 | 9067 ft | 263 kts | 224° |
| 2026-05-04 17:49 | 45.28642 | 13.88125 | 8811 ft | 262 kts | 224° |
| 2026-05-04 17:49 | 45.27339 | 13.86359 | 8556 ft | 262 kts | 224° |
| 2026-05-04 17:49 | 45.26025 | 13.84576 | 8311 ft | 262 kts | 224° |
| 2026-05-04 17:49 | 45.24714 | 13.82799 | 8060 ft | 261 kts | 224° |
| 2026-05-04 17:50 | 45.23399 | 13.81019 | 7809 ft | 261 kts | 224° |
| 2026-05-04 17:50 | 45.22085 | 13.79243 | 7566 ft | 260 kts | 224° |
| 2026-05-04 17:50 | 45.20768 | 13.77464 | 7334 ft | 264 kts | 224° |
| 2026-05-04 17:50 | 45.19434 | 13.75661 | 7094 ft | 266 kts | 224° |
| 2026-05-04 17:51 | 45.18101 | 13.73863 | 6845 ft | 263 kts | 224° |
| 2026-05-04 17:51 | 45.16785 | 13.72089 | 6603 ft | 260 kts | 224° |
| 2026-05-04 17:51 | 45.15482 | 13.70333 | 6351 ft | 257 kts | 224° |
| 2026-05-04 17:51 | 45.14191 | 13.68596 | 6101 ft | 254 kts | 224° |
| 2026-05-04 17:52 | 45.12931 | 13.66900 | 5841 ft | 252 kts | 224° |
| 2026-05-04 17:52 | 45.11663 | 13.65194 | 5591 ft | 251 kts | 224° |
| 2026-05-04 17:52 | 45.10385 | 13.63478 | 5336 ft | 249 kts | 224° |
| 2026-05-04 17:52 | 45.09131 | 13.61792 | 5086 ft | 248 kts | 224° |
| 2026-05-04 17:53 | 45.07899 | 13.60138 | 4845 ft | 247 kts | 224° |
| 2026-05-04 17:53 | 45.06652 | 13.58465 | 4590 ft | 246 kts | 224° |
| 2026-05-04 17:53 | 45.05407 | 13.56795 | 4338 ft | 247 kts | 224° |
| 2026-05-04 17:53 | 45.04160 | 13.55123 | 4099 ft | 247 kts | 224° |
| 2026-05-04 17:54 | 45.02912 | 13.53453 | 4035 ft | 247 kts | 224° |
| 2026-05-04 17:54 | 45.01665 | 13.51786 | 3996 ft | 246 kts | 224° |
| 2026-05-04 17:54 | 45.00358 | 13.50236 | 3985 ft | 246 kts | 209° |
| 2026-05-04 17:54 | 44.98705 | 13.49613 | 4000 ft | 251 kts | 186° |
| 2026-05-04 17:55 | 44.96947 | 13.49610 | 4003 ft | 253 kts | 180° |
| 2026-05-04 17:55 | 44.95190 | 13.49728 | 3995 ft | 252 kts | 179° |
| 2026-05-04 17:55 | 44.93444 | 13.49846 | 3990 ft | 249 kts | 179° |
| 2026-05-04 17:55 | 44.91739 | 13.49951 | 3990 ft | 242 kts | 179° |
| 2026-05-04 17:56 | 44.90124 | 13.50518 | 3989 ft | 241 kts | 152° |
| 2026-05-04 17:56 | 44.88944 | 13.52164 | 3994 ft | 244 kts | 120° |
| 2026-05-04 17:56 | 44.88481 | 13.54449 | 4021 ft | 241 kts | 96° |
| 2026-05-04 17:56 | 44.88470 | 13.56727 | 4003 ft | 223 kts | 89° |
| 2026-05-04 17:57 | 44.88554 | 13.58783 | 3984 ft | 201 kts | 86° |
| 2026-05-04 17:57 | 44.88652 | 13.60643 | 3971 ft | 184 kts | 88° |
| 2026-05-04 17:57 | 44.88712 | 13.62439 | 3882 ft | 185 kts | 89° |
| 2026-05-04 17:57 | 44.88756 | 13.64236 | 3665 ft | 180 kts | 90° |
| 2026-05-04 17:58 | 44.88794 | 13.65989 | 3429 ft | 177 kts | 90° |
| 2026-05-04 17:58 | 44.88831 | 13.67727 | 3215 ft | 178 kts | 90° |
| 2026-05-04 17:58 | 44.88868 | 13.69471 | 2984 ft | 177 kts | 90° |
| 2026-05-04 17:58 | 44.88904 | 13.71195 | 2773 ft | 176 kts | 90° |
| 2026-05-04 17:59 | 44.88941 | 13.72905 | 2540 ft | 173 kts | 90° |
| 2026-05-04 17:59 | 44.88977 | 13.74590 | 2327 ft | 173 kts | 91° |
| 2026-05-04 17:59 | 44.89048 | 13.77900 | 1904 ft | 165 kts | 92° |
| 2026-05-04 18:00 | 44.89082 | 13.79534 | 1700 ft | 167 kts | 91° |
| 2026-05-04 18:00 | 44.89117 | 13.81153 | 1489 ft | 162 kts | 91° |
| 2026-05-04 18:00 | 44.89150 | 13.82721 | 1271 ft | 157 kts | 91° |
| 2026-05-04 18:00 | 44.89183 | 13.84244 | 1083 ft | 155 kts | 91° |
| 2026-05-04 18:01 | 44.89215 | 13.85742 | 885 ft | 150 kts | 91° |
| 2026-05-04 18:01 | 44.89245 | 13.87161 | 718 ft | 144 kts | 90° |
| 2026-05-04 18:01 | 44.89269 | 13.88599 | 559 ft | 150 kts | 89° |
| 2026-05-04 18:02 | 44.89335 | 13.91396 | 226 ft | 121 kts | 88° |
| 2026-05-04 18:02 | 44.89356 | 13.92278 | 222 ft | 58 kts | 88° |
| 2026-05-04 18:02 | 44.89364 | 13.92643 | 218 ft | 30 kts | 88° |
| 2026-05-04 18:02 | 44.89381 | 13.92844 | 223 ft | 13 kts | 50° |
| 2026-05-04 18:03 | 44.89468 | 13.92867 | 221 ft | 13 kts | 357° |
| 2026-05-04 18:03 | 44.89529 | 13.92863 | 222 ft | 6 kts | 356° |
| 2026-05-04 18:03 | 44.89533 | 13.92863 | 222 ft | 0 kts | 356° |
| 2026-05-04 18:04 | 44.89585 | 13.92736 | 224 ft | 16 kts | 271° |
| 2026-05-04 18:05 | 44.89634 | 13.92602 | 226 ft | 15 kts | 307° |
| 2026-05-04 18:05 | 44.89664 | 13.92518 | 226 ft | 6 kts | 296° |
| 2026-05-04 18:05 | 44.89665 | 13.92516 | 226 ft | 0 kts | 296° |